Time;durP1;ratioP1;P1;durP2;ratioP2;P2;SDS_P1;SDS_P2;PMS_P1;PMS_P2;Temp;Humidity;BMP_temperature;BMP_pressure;BME280_temperature;BME280_humidity;BME280_pressure;Samples;Min_cycle;Max_cycle;Signal;HPM_P1;HPM_P2
2020/12/19 00:01:11;;;;;;;40.60;23.10;;;;;;;2.58;67.71;101240.56;124671;1098;105098;-82
2020/12/19 00:03:39;;;;;;;47.37;26.50;;;;;;;2.59;67.52;101236.98;124599;1098;104516;-83
2020/12/19 00:06:08;;;;;;;47.30;24.80;;;;;;;2.60;67.99;101233.44;124527;1098;104637;-83
2020/12/19 00:08:38;;;;;;;48.23;25.60;;;;;;;2.60;68.36;101249.25;124613;1098;104626;-84
2020/12/19 00:11:08;;;;;;;66.00;35.47;;;;;;;2.59;68.78;101246.68;124526;1098;104618;-83
2020/12/19 00:13:36;;;;;;;58.03;31.93;;;;;;;2.58;68.06;101235.30;124443;1098;104993;-81
2020/12/19 00:16:04;;;;;;;54.60;26.80;;;;;;;2.58;68.26;101239.69;124505;1098;104641;-80
2020/12/19 00:18:32;;;;;;;48.33;26.10;;;;;;;2.55;68.75;101235.44;124425;1098;104980;-82
2020/12/19 00:21:01;;;;;;;45.53;24.20;;;;;;;2.51;67.27;101242.64;124548;1098;104525;-81
2020/12/19 00:23:29;;;;;;;44.87;24.10;;;;;;;2.49;68.63;101241.87;124434;1098;104589;-82
2020/12/19 00:25:57;;;;;;;39.03;22.20;;;;;;;2.46;68.42;101238.53;124476;1098;104797;-83
2020/12/19 00:28:25;;;;;;;45.73;24.67;;;;;;;2.42;68.69;101242.25;124546;1098;105215;-84
2020/12/19 00:30:53;;;;;;;45.10;24.17;;;;;;;2.33;68.79;101231.25;124523;1098;104503;-84
2020/12/19 00:33:21;;;;;;;51.03;29.53;;;;;;;2.31;67.35;101232.23;124551;1098;105246;-83
2020/12/19 00:35:49;;;;;;;129.73;78.13;;;;;;;2.29;67.71;101226.20;124611;1098;104600;-84
2020/12/19 00:38:18;;;;;;;71.17;35.57;;;;;;;2.27;68.97;101223.66;124511;1098;104554;-83
2020/12/19 00:40:47;;;;;;;58.63;30.07;;;;;;;2.25;68.92;101214.98;124563;1098;104646;-81
2020/12/19 00:43:15;;;;;;;51.03;28.57;;;;;;;2.25;67.62;101227.28;124479;1098;104528;-81
2020/12/19 00:45:43;;;;;;;52.53;28.03;;;;;;;2.25;67.88;101228.16;124536;1098;104705;-81
2020/12/19 00:48:11;;;;;;;63.30;35.50;;;;;;;2.31;69.16;101233.11;124494;1098;104645;-81
2020/12/19 00:50:39;;;;;;;58.57;30.83;;;;;;;2.36;69.15;101225.81;124514;1098;104542;-81
2020/12/19 00:53:07;;;;;;;65.17;34.37;;;;;;;2.38;67.98;101222.27;124477;1098;104600;-82
2020/12/19 00:55:35;;;;;;;49.40;26.10;;;;;;;2.37;68.31;101216.16;124614;1098;104592;-82
2020/12/19 00:58:03;;;;;;;66.27;37.53;;;;;;;2.37;68.92;101221.42;124578;1098;104532;-81
2020/12/19 01:00:31;;;;;;;64.37;35.60;;;;;;;2.39;69.33;101219.56;124525;1098;104512;-82
2020/12/19 01:03:00;;;;;;;57.53;32.20;;;;;;;2.45;68.93;101215.77;124526;1098;104609;-80
2020/12/19 01:05:28;;;;;;;66.90;37.30;;;;;;;2.49;69.62;101220.80;124508;1098;104708;-81
2020/12/19 01:07:56;;;;;;;66.20;33.50;;;;;;;2.54;69.00;101213.52;124631;1098;104586;-82
2020/12/19 01:10:24;;;;;;;93.47;56.57;;;;;;;2.53;69.85;101218.86;124572;1098;104657;-82
2020/12/19 01:12:52;;;;;;;77.80;42.93;;;;;;;2.52;70.16;101220.66;124417;1098;104602;-81
2020/12/19 01:15:20;;;;;;;86.50;49.27;;;;;;;2.51;68.57;101216.30;124593;1098;104660;-82
2020/12/19 01:17:48;;;;;;;61.13;33.77;;;;;;;2.50;69.33;101211.98;124492;1098;104636;-80
2020/12/19 01:20:17;;;;;;;55.50;29.73;;;;;;;2.53;68.65;101209.16;124324;1098;104496;-80
2020/12/19 01:22:45;;;;;;;60.43;30.47;;;;;;;2.53;70.23;101210.95;124312;1098;104494;-81
2020/12/19 01:25:13;;;;;;;149.70;101.20;;;;;;;2.55;70.01;101211.73;124369;1098;105013;-81
2020/12/19 01:27:41;;;;;;;99.40;57.03;;;;;;;2.56;69.64;101208.17;124465;1098;104637;-82
2020/12/19 01:30:09;;;;;;;79.37;44.13;;;;;;;2.55;69.85;101206.46;124704;1098;104612;-82
2020/12/19 01:32:37;;;;;;;87.37;50.67;;;;;;;2.59;69.58;101207.16;124451;1098;104984;-81
2020/12/19 01:35:05;;;;;;;86.30;53.33;;;;;;;2.63;69.64;101209.55;124497;1098;104606;-80
2020/12/19 01:37:33;;;;;;;70.43;40.23;;;;;;;2.64;69.65;101198.09;124481;1098;104606;-82
2020/12/19 01:40:01;;;;;;;60.07;33.27;;;;;;;2.64;69.61;101202.52;124499;1098;104665;-81
2020/12/19 01:42:29;;;;;;;58.37;32.43;;;;;;;2.64;70.29;101198.09;124529;1098;104606;-82
2020/12/19 01:44:58;;;;;;;56.65;33.00;;;;;;;2.67;70.34;101203.19;124484;1098;104996;-81
2020/12/19 01:47:27;;;;;;;64.60;40.93;;;;;;;2.75;68.92;101205.42;124443;1098;104625;-82
2020/12/19 01:49:56;;;;;;;56.83;34.73;;;;;;;2.83;69.45;101192.72;124503;1098;104586;-82
2020/12/19 01:52:26;;;;;;;75.73;43.70;;;;;;;2.87;70.33;101191.62;124516;1098;104513;-81
2020/12/19 01:54:57;;;;;;;75.57;48.13;;;;;;;2.91;69.27;101187.05;124607;1098;104721;-82
2020/12/19 01:57:26;;;;;;;75.57;49.00;;;;;;;2.88;68.96;101195.10;124503;1098;104666;-82
2020/12/19 01:59:55;;;;;;;84.80;51.80;;;;;;;2.85;70.44;101192.62;124529;1098;104516;-82
2020/12/19 02:02:25;;;;;;;79.57;48.30;;;;;;;2.88;70.66;101187.20;124554;1098;104526;-82
2020/12/19 02:04:53;;;;;;;51.47;30.57;;;;;;;2.84;69.85;101185.66;124491;1098;104643;-82
2020/12/19 02:07:23;;;;;;;54.37;31.27;;;;;;;2.85;69.86;101190.86;124456;1098;104542;-82
2020/12/19 02:09:52;;;;;;;71.00;41.37;;;;;;;2.89;70.57;101186.28;124578;1098;104564;-82
2020/12/19 02:12:20;;;;;;;77.60;44.33;;;;;;;2.92;70.38;101186.94;124474;1098;104506;-82
2020/12/19 02:14:48;;;;;;;74.60;42.43;;;;;;;2.96;70.02;101182.36;124551;1098;104604;-81
2020/12/19 02:17:16;;;;;;;68.17;38.87;;;;;;;2.95;69.23;101191.22;124445;1098;104565;-82
2020/12/19 02:19:44;;;;;;;64.60;37.70;;;;;;;2.93;70.42;101183.39;124571;1093;104519;-82
2020/12/19 02:22:12;;;;;;;59.00;32.27;;;;;;;2.94;69.50;101184.23;124553;1098;104522;-82
2020/12/19 02:24:40;;;;;;;54.43;30.67;;;;;;;2.94;69.41;101178.95;124589;1098;104560;-82
2020/12/19 02:27:09;;;;;;;54.63;29.07;;;;;;;2.95;70.74;101176.25;124551;1098;104530;-84
2020/12/19 02:29:37;;;;;;;59.87;34.77;;;;;;;2.97;70.17;101181.45;124507;1098;104635;-83
2020/12/19 02:32:05;;;;;;;59.87;33.90;;;;;;;3.00;69.85;101183.90;124516;1099;104538;-83
2020/12/19 02:34:33;;;;;;;52.80;31.23;;;;;;;2.97;69.46;101184.08;124538;1098;104699;-83
2020/12/19 02:37:01;;;;;;;59.03;33.67;;;;;;;2.97;69.90;101184.08;124502;1098;104612;-82
2020/12/19 02:39:29;;;;;;;58.93;31.60;;;;;;;2.96;69.96;101187.63;124539;1098;104557;-84
2020/12/19 02:41:57;;;;;;;60.67;34.33;;;;;;;2.94;69.93;101192.14;124533;1098;104516;-82
2020/12/19 02:44:25;;;;;;;55.87;30.77;;;;;;;2.91;70.06;101184.41;124561;1098;104584;-84
2020/12/19 02:46:53;;;;;;;60.77;33.23;;;;;;;2.95;69.76;101185.95;124556;1098;104523;-82
2020/12/19 02:49:21;;;;;;;52.27;30.17;;;;;;;2.94;70.90;101177.20;124568;1098;104520;-81
2020/12/19 02:51:49;;;;;;;48.83;27.53;;;;;;;2.95;70.83;101178.88;124540;1098;104615;-81
2020/12/19 02:54:18;;;;;;;52.27;29.17;;;;;;;2.94;70.44;101173.69;124567;1098;104586;-81
2020/12/19 02:56:46;;;;;;;80.90;48.20;;;;;;;2.98;70.96;101175.22;124512;1098;104621;-84
2020/12/19 02:59:14;;;;;;;71.83;40.57;;;;;;;2.94;70.00;101176.32;124513;1098;104606;-83
2020/12/19 03:01:42;;;;;;;69.45;40.75;;;;;;;2.85;69.65;101184.70;124631;1098;104615;-82
2020/12/19 03:04:10;;;;;;;54.80;31.93;;;;;;;2.82;70.66;101179.62;124523;1098;104705;-82
2020/12/19 03:06:38;;;;;;;63.77;37.90;;;;;;;2.87;70.77;101177.60;124512;1098;104584;-81
2020/12/19 03:09:06;;;;;;;55.00;32.50;;;;;;;2.92;70.60;101170.28;124546;1098;104656;-81
2020/12/19 03:11:34;;;;;;;52.25;33.45;;;;;;;2.96;69.82;101171.81;124498;1098;104599;-80
2020/12/19 03:14:02;;;;;;;50.37;30.20;;;;;;;2.99;70.31;101169.03;124495;1098;104646;-81
2020/12/19 03:16:30;;;;;;;53.20;28.67;;;;;;;3.03;70.08;101170.56;124430;1098;104994;-81
2020/12/19 03:18:58;;;;;;;49.30;28.63;;;;;;;3.03;70.47;101160.02;124424;1098;104884;-80
2020/12/19 03:21:26;;;;;;;43.30;24.73;;;;;;;3.04;70.54;101164.38;124573;1098;104528;-80
2020/12/19 03:23:55;;;;;;;41.00;22.20;;;;;;;2.95;70.04;101167.50;124518;1098;104615;-79
2020/12/19 03:26:23;;;;;;;43.77;23.07;;;;;;;2.91;70.23;101164.16;124493;1098;104520;-80
2020/12/19 03:28:52;;;;;;;43.10;24.00;;;;;;;2.90;69.70;101166.88;124459;1098;104624;-80
2020/12/19 03:31:20;;;;;;;46.40;24.90;;;;;;;2.90;70.68;101159.81;124435;1098;104541;-82
2020/12/19 03:33:48;;;;;;;45.50;25.80;;;;;;;2.95;69.95;101156.95;124562;1098;105130;-82
2020/12/19 03:36:16;;;;;;;48.13;26.77;;;;;;;2.97;70.16;101159.51;124536;1098;104606;-82
2020/12/19 03:38:44;;;;;;;47.37;25.33;;;;;;;2.95;70.91;101151.67;124490;1098;105020;-82
2020/12/19 03:41:13;;;;;;;55.10;30.97;;;;;;;2.91;70.55;101155.41;124465;1098;104524;-82
2020/12/19 03:43:41;;;;;;;48.50;26.13;;;;;;;2.82;70.64;101155.89;124572;1098;104583;-82
2020/12/19 03:46:10;;;;;;;98.47;47.63;;;;;;;2.77;70.51;101153.48;124569;1098;104628;-82
2020/12/19 03:48:39;;;;;;;62.73;32.83;;;;;;;2.72;70.26;101145.83;124591;1098;104493;-80
2020/12/19 03:51:07;;;;;;;52.93;28.73;;;;;;;2.65;70.81;101148.87;124532;1098;104577;-80
2020/12/19 03:53:35;;;;;;;50.60;27.50;;;;;;;2.69;70.85;101138.08;124529;1099;104609;-79
2020/12/19 03:56:03;;;;;;;46.07;25.40;;;;;;;2.67;70.78;101132.03;124491;1098;104516;-82
2020/12/19 03:58:32;;;;;;;50.43;27.17;;;;;;;2.67;70.30;101134.67;124535;1098;104573;-82
2020/12/19 04:01:00;;;;;;;54.85;30.40;;;;;;;2.68;70.62;101139.02;124545;1098;104519;-81
2020/12/19 04:03:28;;;;;;;41.77;22.53;;;;;;;2.67;71.46;101134.67;124496;1098;104621;-80
2020/12/19 04:05:56;;;;;;;40.27;21.03;;;;;;;2.69;70.75;101132.80;124325;1098;104555;-80
2020/12/19 04:08:24;;;;;;;42.27;24.43;;;;;;;2.68;70.24;101135.55;124263;1098;104605;-80
2020/12/19 04:10:52;;;;;;;37.03;21.47;;;;;;;2.62;71.00;101130.57;124460;1098;105030;-80
2020/12/19 04:13:20;;;;;;;39.37;21.30;;;;;;;2.53;70.46;101142.46;124476;1098;104689;-81
2020/12/19 04:15:48;;;;;;;38.75;21.90;;;;;;;2.47;71.04;101138.36;124485;1098;104599;-81
2020/12/19 04:18:16;;;;;;;39.10;21.47;;;;;;;2.50;70.46;101132.94;124467;1098;104874;-81
2020/12/19 04:20:44;;;;;;;35.85;18.80;;;;;;;2.48;70.19;101134.81;124521;1099;104524;-79
2020/12/19 04:23:12;;;;;;;36.45;19.70;;;;;;;2.50;70.61;101132.94;124515;1098;104608;-78
2020/12/19 04:25:41;;;;;;;44.10;27.33;;;;;;;2.54;71.03;101136.23;124455;1098;104583;-78
2020/12/19 04:28:09;;;;;;;41.17;23.37;;;;;;;2.54;70.59;101139.75;124427;1098;104513;-78
2020/12/19 04:30:37;;;;;;;41.63;22.47;;;;;;;2.55;71.86;101136.17;124475;1098;104493;-79
2020/12/19 04:33:05;;;;;;;44.40;25.00;;;;;;;2.54;70.29;101136.23;124491;1098;104676;-79
2020/12/19 04:35:33;;;;;;;40.70;22.43;;;;;;;2.53;71.01;101137.19;124473;1098;104590;-79
2020/12/19 04:38:01;;;;;;;39.23;21.47;;;;;;;2.53;71.13;101137.19;124438;1098;104605;-80
2020/12/19 04:40:29;;;;;;;34.97;18.50;;;;;;;2.50;71.68;101132.94;124456;1098;104605;-79
2020/12/19 04:42:59;;;;;;;32.63;18.10;;;;;;;2.49;71.91;101138.28;124457;1098;104722;-79
2020/12/19 04:45:28;;;;;;;33.23;18.47;;;;;;;2.46;71.50;101125.26;124464;1098;104529;-79
2020/12/19 04:47:56;;;;;;;36.27;19.33;;;;;;;2.46;70.28;101131.37;124428;1098;105119;-79
2020/12/19 04:50:27;;;;;;;38.63;20.47;;;;;;;2.45;70.87;101134.95;124472;1098;104510;-79
2020/12/19 04:52:55;;;;;;;37.43;19.03;;;;;;;2.44;71.51;101127.12;124499;1098;104596;-79
2020/12/19 04:55:23;;;;;;;37.23;19.27;;;;;;;2.42;71.66;101128.98;124491;1098;104571;-79
2020/12/19 04:57:55;;;;;;;40.45;21.40;;;;;;;2.38;70.55;101123.02;124556;1098;104725;-79
2020/12/19 05:00:23;;;;;;;34.87;17.93;;;;;;;2.37;71.30;101123.97;124468;1098;104596;-81
2020/12/19 05:02:54;;;;;;;37.03;19.80;;;;;;;2.40;71.22;101126.42;124505;1098;104599;-81
2020/12/19 05:05:22;;;;;;;160.35;72.65;;;;;;;2.42;72.08;101128.98;124517;1098;105099;-81
2020/12/19 05:07:51;;;;;;;119.43;50.77;;;;;;;2.36;71.81;101128.36;124537;1098;104618;-81
2020/12/19 05:10:19;;;;;;;143.90;78.25;;;;;;;2.30;70.66;101128.68;124486;1098;104522;-82
2020/12/19 05:12:53;;;;;;;100.03;49.80;;;;;;;2.29;70.51;101124.36;124526;1098;104603;-82
2020/12/19 05:15:22;;;;;;;104.93;53.23;;;;;;;2.30;71.31;101128.68;124518;1098;104607;-82
2020/12/19 05:17:54;;;;;;;103.50;52.00;;;;;;;2.32;71.87;101118.92;124527;1098;104503;-80
2020/12/19 05:20:24;;;;;;;88.60;44.83;;;;;;;2.29;70.55;101127.00;124466;1098;104494;-83
2020/12/19 05:22:53;;;;;;;69.67;37.73;;;;;;;2.23;72.11;101129.91;124564;1099;104535;-83
2020/12/19 05:25:23;;;;;;;340.30;230.57;;;;;;;2.24;71.58;101130.80;124596;1098;104494;-81
2020/12/19 05:27:52;;;;;;;176.25;93.65;;;;;;;2.28;71.63;101121.80;124582;1098;104526;-78
2020/12/19 05:30:21;;;;;;;93.60;46.57;;;;;;;2.32;70.64;101128.61;124464;1098;104525;-77
2020/12/19 05:32:52;;;;;;;145.47;84.43;;;;;;;2.33;70.48;101122.42;124495;1098;104660;-77
2020/12/19 05:35:22;;;;;;;99.05;52.33;;;;;;;2.31;70.59;101135.67;124458;1098;104577;-71
2020/12/19 05:37:59;;;;;;;114.43;61.17;;;;;;;2.27;70.48;101128.86;124474;1098;104529;-73
2020/12/19 05:40:30;;;;;;;79.67;41.93;;;;;;;2.21;70.57;101133.56;124469;1098;104919;-83
2020/12/19 05:42:59;;;;;;;78.30;44.58;;;;;;;2.17;72.03;101132.86;124589;1098;104490;-79
2020/12/19 05:45:29;;;;;;;104.57;61.63;;;;;;;2.20;72.33;101139.78;124584;1098;104548;-79
2020/12/19 05:47:58;;;;;;;82.00;46.65;;;;;;;2.20;71.49;101132.72;124421;1098;104584;-79
2020/12/19 05:50:26;;;;;;;94.63;54.53;;;;;;;2.21;71.99;101136.20;124404;1098;104530;-78
2020/12/19 05:52:57;;;;;;;71.63;38.10;;;;;;;2.20;70.79;101135.36;124465;1098;104754;-79
2020/12/19 05:55:26;;;;;;;106.97;64.47;;;;;;;2.18;71.45;101139.85;124511;1098;104538;-81
2020/12/19 05:57:57;;;;;;;55.57;30.93;;;;;;;2.14;72.25;101141.78;124588;1090;104513;-80
2020/12/19 06:00:25;;;;;;;50.17;26.57;;;;;;;2.17;72.45;101124.97;124652;1098;104575;-81
2020/12/19 06:02:56;;;;;;;74.23;44.50;;;;;;;2.21;71.62;101131.78;124564;1099;104669;-79
2020/12/19 06:05:27;;;;;;;67.35;40.60;;;;;;;2.24;71.70;101136.90;124464;1098;104520;-81
2020/12/19 06:07:57;;;;;;;57.10;32.63;;;;;;;2.28;71.68;101135.81;124497;1098;104602;-80
2020/12/19 06:10:26;;;;;;;53.55;29.40;;;;;;;2.28;71.14;101133.18;124577;1098;104606;-80
2020/12/19 06:13:02;;;;;;;44.10;24.03;;;;;;;2.27;71.63;101141.15;124585;1098;104522;-80
2020/12/19 06:15:52;;;;;;;48.33;25.67;;;;;;;2.28;71.95;101141.08;124616;1098;104582;-79
2020/12/19 06:18:30;;;;;;;47.63;26.83;;;;;;;2.32;71.59;101137.35;124479;1098;104544;-80
2020/12/19 06:20:59;;;;;;;46.60;27.10;;;;;;;2.32;72.61;101139.98;124553;1098;104523;-77
2020/12/19 06:23:35;;;;;;;66.47;41.93;;;;;;;2.36;71.71;101136.27;124502;1098;105240;-83
2020/12/19 06:26:04;;;;;;;117.53;84.60;;;;;;;2.36;72.46;101130.99;124500;1098;104951;-81
2020/12/19 06:28:50;;;;;;;53.13;31.00;;;;;;;2.35;71.85;101139.00;124516;1098;104576;-80
2020/12/19 06:31:21;;;;;;;43.97;25.83;;;;;;;2.37;70.92;101131.87;124601;1098;104638;-80
2020/12/19 06:33:51;;;;;;;42.47;25.27;;;;;;;2.39;70.85;101131.77;124552;1098;104516;-80
2020/12/19 06:36:21;;;;;;;100.70;59.10;;;;;;;2.40;71.73;101130.84;124574;1098;104552;-82
2020/12/19 06:38:51;;;;;;;54.53;28.40;;;;;;;2.38;70.92;101132.71;124513;1098;104552;-83
2020/12/19 06:41:42;;;;;;;59.97;36.20;;;;;;;2.33;71.95;101130.33;124561;1098;104605;-82
2020/12/19 06:44:12;;;;;;;46.77;26.30;;;;;;;2.28;71.43;101132.33;124528;1098;104606;-80
2020/12/19 06:46:40;;;;;;;67.23;38.40;;;;;;;2.25;71.82;101135.98;124516;1098;104624;-82
2020/12/19 06:49:34;;;;;;;48.30;28.37;;;;;;;2.27;71.95;101133.25;124642;1098;104526;-83
2020/12/19 06:52:10;;;;;;;43.57;26.07;;;;;;;2.25;72.00;101137.74;124440;1098;104603;-80
2020/12/19 06:54:40;;;;;;;54.37;35.43;;;;;;;2.23;71.46;101142.23;124404;1098;104672;-83
2020/12/19 06:57:24;;;;;;;92.10;54.47;;;;;;;2.21;72.88;101146.73;124512;1098;104935;-79
2020/12/19 06:59:53;;;;;;;77.45;39.15;;;;;;;2.16;71.96;101154.88;124486;1098;104519;-78
2020/12/19 07:02:23;;;;;;;58.83;31.37;;;;;;;2.13;71.51;101152.39;124459;1098;104670;-79
2020/12/19 07:04:53;;;;;;;81.17;42.90;;;;;;;2.13;71.45;101150.59;124489;1098;104635;-77
2020/12/19 07:07:25;;;;;;;66.53;36.37;;;;;;;2.18;72.23;101152.17;124499;1098;104618;-78
2020/12/19 07:09:59;;;;;;;72.00;41.50;;;;;;;2.20;72.94;101153.79;124510;1098;104618;-85
2020/12/19 07:12:33;;;;;;;71.00;39.30;;;;;;;2.27;72.25;101156.95;124506;1098;104516;-85
2020/12/19 07:15:02;;;;;;;66.00;38.07;;;;;;;2.35;71.93;101160.91;124526;1098;104657;-85
2020/12/19 07:17:42;;;;;;;76.50;43.83;;;;;;;2.42;72.00;101155.33;124525;1098;104617;-80
2020/12/19 07:20:11;;;;;;;77.30;43.30;;;;;;;2.40;72.00;101157.19;124472;1098;105613;-81
2020/12/19 07:22:39;;;;;;;76.93;48.13;;;;;;;2.40;71.33;101163.30;124483;1098;104650;-79
2020/12/19 07:25:07;;;;;;;182.40;98.90;;;;;;;2.44;72.10;101159.58;124539;1098;104609;-85
2020/12/19 07:27:35;;;;;;;73.15;35.50;;;;;;;2.54;72.15;101163.46;124430;1098;104628;-83
2020/12/19 07:30:05;;;;;;;64.53;36.43;;;;;;;2.53;71.88;101169.65;124513;1098;105024;-80
2020/12/19 07:32:33;;;;;;;70.20;39.00;;;;;;;2.53;71.25;101158.27;124467;1098;105091;-81
2020/12/19 07:35:01;;;;;;;64.20;36.53;;;;;;;2.46;72.63;101162.98;124571;1098;105127;-83
2020/12/19 07:37:30;;;;;;;42.80;22.40;;;;;;;2.45;72.11;101168.36;124502;1098;104650;-79
2020/12/19 07:40:09;;;;;;;51.00;29.10;;;;;;;2.52;72.21;101172.35;124509;1098;104529;-86
2020/12/19 07:42:37;;;;;;;49.60;26.63;;;;;;;2.52;72.09;101173.23;124577;1098;104583;-85
2020/12/19 07:45:05;;;;;;;41.60;22.33;;;;;;;2.48;71.69;101173.45;124613;1098;104645;-84
2020/12/19 07:47:34;;;;;;;50.90;29.23;;;;;;;2.52;71.46;101172.35;124522;1098;104589;-82
2020/12/19 07:50:03;;;;;;;49.80;25.33;;;;;;;2.47;72.72;101174.39;124542;1098;104526;-84
2020/12/19 07:52:31;;;;;;;63.55;37.60;;;;;;;2.41;72.69;101172.08;124498;1098;104491;-85
2020/12/19 07:55:01;;;;;;;40.80;22.60;;;;;;;2.40;72.56;101172.99;124561;1098;104698;-81
2020/12/19 07:57:30;;;;;;;38.93;20.30;;;;;;;2.40;72.15;101180.89;124456;1098;104571;-74
2020/12/19 07:59:59;;;;;;;41.83;23.63;;;;;;;2.44;72.19;101177.17;124428;1098;104923;-76
2020/12/19 08:02:27;;;;;;;73.90;45.70;;;;;;;2.44;72.83;101175.38;124457;1098;104650;-79
2020/12/19 08:04:57;;;;;;;61.30;36.50;;;;;;;2.47;72.19;101177.88;124451;1098;104612;-79
2020/12/19 08:07:27;;;;;;;50.57;28.50;;;;;;;2.47;71.39;101174.39;124425;1098;104724;-78
2020/12/19 08:10:00;;;;;;;36.37;19.97;;;;;;;2.52;71.61;101167.95;124533;1098;104529;-82
2020/12/19 08:12:29;;;;;;;49.23;30.27;;;;;;;2.63;71.95;101167.39;124701;1098;104606;-83
2020/12/19 08:15:00;;;;;;;50.00;30.23;;;;;;;2.72;72.61;101173.98;126894;1098;104499;-80
2020/12/19 08:17:29;;;;;;;60.50;39.47;;;;;;;2.79;72.00;101171.86;124646;1098;105179;-81
2020/12/19 08:19:59;;;;;;;50.35;28.30;;;;;;;2.87;72.56;101169.69;124486;1098;104538;-80
2020/12/19 08:22:30;;;;;;;53.17;29.10;;;;;;;2.98;72.29;101180.49;124934;1098;104602;-82
2020/12/19 08:24:58;;;;;;;50.47;28.43;;;;;;;3.04;71.69;101182.83;124628;1098;104545;-83
2020/12/19 08:27:51;;;;;;;55.35;31.25;;;;;;;3.06;72.04;101183.59;124470;1098;104726;-82
2020/12/19 08:30:28;;;;;;;73.57;42.53;;;;;;;3.07;71.81;101185.28;124644;1098;105455;-78
2020/12/19 08:32:58;;;;;;;50.30;28.53;;;;;;;3.08;71.88;101187.00;124541;1098;104602;-83
2020/12/19 08:35:29;;;;;;;70.33;42.47;;;;;;;3.14;71.46;101186.66;124635;1098;104663;-78
2020/12/19 08:38:07;;;;;;;66.13;36.87;;;;;;;3.17;71.43;101187.44;124516;1098;104655;-78
2020/12/19 08:40:37;;;;;;;61.50;36.93;;;;;;;3.17;70.92;101184.80;124443;1098;104625;-82
2020/12/19 08:43:07;;;;;;;69.23;38.23;;;;;;;3.12;72.54;101177.98;124586;1098;104605;-76
2020/12/19 08:45:36;;;;;;;65.23;38.27;;;;;;;3.08;71.00;101178.22;124523;1098;104948;-78
2020/12/19 08:48:07;;;;;;;67.93;39.53;;;;;;;3.05;71.54;101168.70;124458;1098;104696;-80
2020/12/19 08:50:39;;;;;;;50.70;28.93;;;;;;;3.04;71.39;101174.05;124396;1098;104606;-83
2020/12/19 08:53:12;;;;;;;82.47;45.07;;;;;;;3.04;72.25;101172.28;124661;1098;104986;-82
2020/12/19 08:55:41;;;;;;;53.67;28.10;;;;;;;3.05;71.87;101170.48;124637;1098;105019;-81
2020/12/19 08:58:21;;;;;;;63.80;34.10;;;;;;;3.02;71.60;101171.52;124491;1098;104519;-79
2020/12/19 09:00:49;;;;;;;53.53;27.80;;;;;;;3.01;71.82;101168.95;124482;1098;104528;-79
2020/12/19 09:03:28;;;;;;;49.17;25.73;;;;;;;3.00;71.39;101173.35;124459;1098;104502;-80
2020/12/19 09:06:01;;;;;;;45.00;25.00;;;;;;;3.02;72.44;101176.79;124510;1098;105124;-80
2020/12/19 09:08:37;;;;;;;41.47;22.63;;;;;;;3.08;71.64;101165.91;124519;1098;104638;-80
2020/12/19 09:11:06;;;;;;;44.13;24.43;;;;;;;3.14;72.29;101170.84;124439;1098;104606;-80
2020/12/19 09:13:35;;;;;;;45.20;23.33;;;;;;;3.18;72.06;101175.97;124424;1098;104990;-76
2020/12/19 09:16:09;;;;;;;37.73;19.17;;;;;;;3.14;71.63;101170.00;124470;1098;104606;-74
2020/12/19 09:18:38;;;;;;;42.80;23.35;;;;;;;3.07;71.57;101161.55;124442;1098;104513;-72
2020/12/19 09:21:07;;;;;;;39.20;21.57;;;;;;;3.12;71.15;101159.53;124584;1098;104621;-71
2020/12/19 09:23:36;;;;;;;38.97;21.27;;;;;;;3.11;71.92;101154.33;124360;1098;104599;-71
2020/12/19 09:26:06;;;;;;;38.07;20.77;;;;;;;3.07;72.25;101158.08;124541;1098;104897;-73
2020/12/19 09:28:34;;;;;;;41.90;21.25;;;;;;;3.02;71.74;101162.73;124496;1092;104544;-71
2020/12/19 09:31:02;;;;;;;35.97;19.53;;;;;;;2.94;71.57;101157.87;124440;1098;104519;-76
2020/12/19 09:33:30;;;;;;;36.70;21.43;;;;;;;2.93;71.59;101162.30;124355;1098;104634;-73
2020/12/19 09:35:58;;;;;;;35.07;19.77;;;;;;;2.93;71.90;101164.93;124552;1098;104605;-73
2020/12/19 09:38:27;;;;;;;38.67;21.83;;;;;;;2.92;71.87;101157.09;124537;1098;104919;-74
2020/12/19 09:40:55;;;;;;;41.87;21.17;;;;;;;2.90;71.55;101161.61;124446;1098;104603;-74
2020/12/19 09:43:23;;;;;;;36.43;18.80;;;;;;;2.87;72.63;101156.52;124484;1098;104519;-73
2020/12/19 09:45:51;;;;;;;42.13;20.93;;;;;;;2.83;72.26;101155.82;124412;1098;104634;-73
2020/12/19 09:48:20;;;;;;;38.33;19.70;;;;;;;2.84;72.13;101152.23;124452;1098;104555;-72
2020/12/19 09:50:48;;;;;;;38.13;20.13;;;;;;;2.85;71.85;101153.95;124460;1098;104608;-73
2020/12/19 09:53:17;;;;;;;38.10;19.90;;;;;;;2.85;71.42;101158.34;124416;1098;104574;-73
2020/12/19 09:55:45;;;;;;;36.07;18.97;;;;;;;2.80;72.60;101150.70;124428;1098;104693;-73
2020/12/19 09:58:13;;;;;;;36.20;19.03;;;;;;;2.81;72.83;101149.78;124386;1098;104612;-74
2020/12/19 10:00:42;;;;;;;36.97;19.07;;;;;;;2.73;71.96;101150.19;124357;1098;104538;-73
2020/12/19 10:03:10;;;;;;;35.57;16.83;;;;;;;2.74;71.67;101151.03;124385;1098;104529;-73
2020/12/19 10:05:38;;;;;;;33.00;18.67;;;;;;;2.75;71.92;101152.71;124427;1098;104647;-74
2020/12/19 10:08:06;;;;;;;36.80;19.83;;;;;;;2.80;72.92;101148.06;124429;1098;104585;-72
2020/12/19 10:10:34;;;;;;;34.93;19.20;;;;;;;2.86;72.27;101149.52;124446;1098;104525;-73
2020/12/19 10:13:03;;;;;;;35.25;19.75;;;;;;;2.91;72.84;101136.96;124428;1098;104618;-73
2020/12/19 10:15:31;;;;;;;35.40;20.30;;;;;;;2.95;71.98;101146.41;124473;1098;104539;-73
2020/12/19 10:17:59;;;;;;;33.47;16.97;;;;;;;2.96;72.81;101148.09;124444;1098;104529;-73
2020/12/19 10:20:27;;;;;;;32.40;18.13;;;;;;;3.03;72.74;101149.47;124386;1098;104510;-73
2020/12/19 10:22:55;;;;;;;31.40;17.00;;;;;;;3.08;71.90;101138.66;124465;1098;104485;-73
2020/12/19 10:25:23;;;;;;;31.53;17.93;;;;;;;3.10;72.47;101136.83;124485;1098;104519;-73
2020/12/19 10:27:51;;;;;;;33.00;17.53;;;;;;;3.12;71.86;101135.80;124507;1098;104566;-73
2020/12/19 10:30:19;;;;;;;31.97;18.23;;;;;;;3.19;72.17;101130.18;124493;1098;104493;-76
2020/12/19 10:32:47;;;;;;;194.03;97.53;;;;;;;3.21;71.83;101133.58;124459;1090;104493;-76
2020/12/19 10:35:15;;;;;;;269.03;116.83;;;;;;;3.22;72.02;101132.66;124413;1098;104606;-74
2020/12/19 10:37:43;;;;;;;305.75;132.40;;;;;;;3.24;72.23;101125.52;124448;1098;104651;-71
2020/12/19 10:40:11;;;;;;;359.23;177.43;;;;;;;3.24;72.66;101125.52;124458;1090;104579;-71
2020/12/19 10:42:40;;;;;;;215.23;98.30;;;;;;;3.27;72.55;101117.41;124463;1093;104605;-73
2020/12/19 10:45:08;;;;;;;333.67;187.50;;;;;;;3.29;73.02;101118.17;124507;1093;104606;-72
2020/12/19 10:47:36;;;;;;;285.20;161.10;;;;;;;3.31;72.94;101127.73;124407;1098;104987;-71
2020/12/19 10:50:04;;;;;;;233.13;123.67;;;;;;;3.32;72.83;101121.50;124307;1098;104590;-73
2020/12/19 10:52:32;;;;;;;149.63;85.33;;;;;;;3.27;72.40;101120.05;124422;1098;105106;-74
2020/12/19 10:55:00;;;;;;;102.73;56.20;;;;;;;3.22;71.85;101116.84;124473;1098;104727;-74
2020/12/19 10:57:29;;;;;;;141.23;85.93;;;;;;;3.20;72.96;101121.34;124417;1098;104703;-75
2020/12/19 10:59:58;;;;;;;101.13;57.90;;;;;;;3.20;72.86;101121.34;124431;1098;104509;-74
2020/12/19 11:02:27;;;;;;;79.40;42.57;;;;;;;3.28;72.68;101119.13;124409;1098;104628;-76
2020/12/19 11:04:55;;;;;;;135.33;83.40;;;;;;;3.34;71.93;101124.06;124457;1098;104661;-74
2020/12/19 11:07:23;;;;;;;106.23;64.37;;;;;;;3.31;71.99;101118.94;124451;1098;104525;-75
2020/12/19 11:09:51;;;;;;;60.97;34.30;;;;;;;3.24;72.39;101118.45;124503;1093;104586;-74